createdAt,value
2022-11-16T00:01:32.166Z,98.30
2022-11-16T00:04:01.376Z,98.30
2022-11-16T00:06:29.268Z,98.20
2022-11-16T00:09:18.251Z,98.30
2022-11-16T00:11:45.412Z,98.30
2022-11-16T00:14:12.343Z,98.40
2022-11-16T00:16:39.224Z,98.40
2022-11-16T00:19:07.047Z,98.40
2022-11-16T00:21:34.488Z,98.50
2022-11-16T00:24:02.552Z,98.50
2022-11-16T00:26:29.685Z,98.30
2022-11-16T00:28:57.431Z,98.30
2022-11-16T00:31:24.977Z,98.30
2022-11-16T00:33:52.321Z,98.30
2022-11-16T00:36:19.206Z,98.30
2022-11-16T00:38:47.559Z,98.20
2022-11-16T00:41:14.609Z,98.30
2022-11-16T00:43:41.598Z,98.30
2022-11-16T00:46:09.623Z,98.20
2022-11-16T00:48:36.923Z,98.20
2022-11-16T00:51:04.426Z,98.50
2022-11-16T00:53:31.794Z,98.20
2022-11-16T00:55:58.698Z,98.20
2022-11-16T00:58:25.669Z,98.10
2022-11-16T01:01:09.753Z,98.20
2022-11-16T01:03:37.306Z,98.20
2022-11-16T01:06:07.260Z,98.30
2022-11-16T01:08:37.526Z,98.20
2022-11-16T01:11:24.369Z,98.20
2022-11-16T01:13:51.796Z,98.20
2022-11-16T01:16:21.099Z,97.90
2022-11-16T01:18:50.492Z,97.90
2022-11-16T01:21:18.480Z,98.00
2022-11-16T01:23:45.516Z,98.00
2022-11-16T01:26:12.701Z,98.10
2022-11-16T01:28:41.315Z,98.10
2022-11-16T01:31:10.362Z,98.00
2022-11-16T01:33:38.473Z,98.00
2022-11-16T01:36:16.630Z,98.10
2022-11-16T01:38:45.676Z,98.10
2022-11-16T01:41:19.495Z,98.10
2022-11-16T01:44:00.285Z,98.00
2022-11-16T01:46:33.179Z,97.90
2022-11-16T01:49:05.957Z,97.80
2022-11-16T01:51:34.091Z,97.90
2022-11-16T01:54:05.068Z,97.90
2022-11-16T01:56:33.624Z,98.00
2022-11-16T01:59:13.865Z,98.00
2022-11-16T02:01:41.003Z,98.00
2022-11-16T02:04:11.736Z,98.00
2022-11-16T02:07:23.645Z,98.10
2022-11-16T02:10:10.185Z,98.20
2022-11-16T02:13:03.772Z,98.30
2022-11-16T02:16:21.156Z,98.30
2022-11-16T02:19:29.197Z,98.50
2022-11-16T02:22:21.624Z,98.60
2022-11-16T02:25:22.429Z,98.60
2022-11-16T02:28:18.407Z,98.70
2022-11-16T02:30:49.338Z,98.70
2022-11-16T02:33:22.785Z,98.70
2022-11-16T02:35:53.336Z,98.70
2022-11-16T02:38:28.335Z,98.80
2022-11-16T02:41:05.902Z,98.80
2022-11-16T02:43:41.890Z,98.80
2022-11-16T02:46:35.753Z,98.80
2022-11-16T02:49:13.983Z,98.80
2022-11-16T02:51:42.496Z,98.80
2022-11-16T02:54:15.696Z,98.80
2022-11-16T02:57:28.992Z,98.70
2022-11-16T02:59:58.552Z,98.60
2022-11-16T03:02:39.878Z,98.50
2022-11-16T03:05:32.193Z,98.50
2022-11-16T03:08:16.690Z,98.50
2022-11-16T03:11:09.391Z,98.40
2022-11-16T03:13:37.534Z,98.40
2022-11-16T03:16:13.654Z,98.30
2022-11-16T03:18:41.766Z,98.30
2022-11-16T03:21:25.427Z,98.30
2022-11-16T03:23:52.455Z,98.30
2022-11-16T03:26:24.048Z,98.20
2022-11-16T03:29:15.340Z,98.30
2022-11-16T03:31:49.989Z,98.40
2022-11-16T03:34:24.228Z,98.40
2022-11-16T03:36:54.021Z,98.50
2022-11-16T03:39:36.518Z,98.50
2022-11-16T03:42:12.003Z,98.50
2022-11-16T03:44:39.771Z,98.50
2022-11-16T03:47:09.231Z,98.40
2022-11-16T03:49:36.129Z,98.40
2022-11-16T03:52:03.343Z,98.40
2022-11-16T03:54:31.344Z,98.30
2022-11-16T03:56:58.228Z,98.30
2022-11-16T03:59:25.812Z,98.40
2022-11-16T04:01:52.819Z,98.50
2022-11-16T04:04:38.470Z,98.40
2022-11-16T04:07:23.971Z,98.40
2022-11-16T04:10:09.302Z,98.50
2022-11-16T04:12:57.706Z,98.40
2022-11-16T04:15:42.909Z,98.50
2022-11-16T04:18:29.549Z,98.50
2022-11-16T04:21:15.315Z,98.50
2022-11-16T04:24:01.247Z,98.50
2022-11-16T04:26:47.266Z,98.40
2022-11-16T04:29:15.138Z,98.50
2022-11-16T04:32:00.660Z,98.60
2022-11-16T04:34:46.783Z,98.60
2022-11-16T04:37:36.035Z,98.60
2022-11-16T04:40:04.497Z,98.60
2022-11-16T04:42:31.437Z,98.60
2022-11-16T04:45:17.307Z,98.60
2022-11-16T04:47:52.457Z,98.60
2022-11-16T04:50:21.883Z,98.60
2022-11-16T04:52:50.220Z,98.50
2022-11-16T04:55:17.260Z,98.50
2022-11-16T04:57:45.786Z,98.40
2022-11-16T05:00:14.183Z,98.30
2022-11-16T05:02:41.297Z,98.50
2022-11-16T05:05:08.878Z,98.50
2022-11-16T05:07:37.878Z,98.60
2022-11-16T05:10:15.427Z,98.70
2022-11-16T05:12:43.274Z,98.80
2022-11-16T05:15:11.033Z,98.80
2022-11-16T05:17:39.119Z,98.80
2022-11-16T05:20:30.426Z,98.80
2022-11-16T05:23:02.883Z,98.80
2022-11-16T05:25:36.642Z,98.70
2022-11-16T05:28:06.789Z,98.70
2022-11-16T05:30:37.967Z,98.80
2022-11-16T05:33:05.123Z,98.70
2022-11-16T05:35:36.125Z,98.70
2022-11-16T05:38:03.009Z,98.60
2022-11-16T05:40:34.155Z,98.50
2022-11-16T05:43:01.509Z,98.50
2022-11-16T05:45:32.291Z,98.40
2022-11-16T05:48:00.578Z,98.40
2022-11-16T05:50:27.560Z,98.40
2022-11-16T05:53:06.550Z,98.30
2022-11-16T05:55:36.042Z,98.40
2022-11-16T05:58:02.947Z,98.30
2022-11-16T06:00:29.986Z,98.30
2022-11-16T06:02:58.177Z,98.20
2022-11-16T06:05:29.484Z,98.10
2022-11-16T06:07:57.278Z,98.00
2022-11-16T06:10:24.166Z,98.00
2022-11-16T06:12:52.984Z,98.10
2022-11-16T06:15:20.082Z,98.00
2022-11-16T06:17:47.928Z,97.80
2022-11-16T06:20:16.202Z,97.90
2022-11-16T06:22:44.289Z,97.80
2022-11-16T06:25:12.175Z,97.80
2022-11-16T06:27:42.579Z,97.90
2022-11-16T06:30:11.520Z,97.60
2022-11-16T06:32:40.085Z,97.70
2022-11-16T06:35:08.216Z,97.80
2022-11-16T06:37:35.246Z,97.60
2022-11-16T06:40:03.734Z,97.60
2022-11-16T06:42:34.561Z,97.60
2022-11-16T06:45:01.839Z,97.60
2022-11-16T06:47:34.651Z,97.50
2022-11-16T06:50:01.843Z,97.50
2022-11-16T06:52:28.811Z,97.50
2022-11-16T06:54:55.825Z,97.40
2022-11-16T06:57:22.719Z,97.40
2022-11-16T06:59:49.891Z,97.20
2022-11-16T07:02:16.993Z,97.30
2022-11-16T07:04:45.130Z,97.20
2022-11-16T07:07:12.038Z,97.10
2022-11-16T07:09:39.915Z,97.10
2022-11-16T07:12:08.536Z,97.10
2022-11-16T07:14:38.929Z,97.10
2022-11-16T07:17:09.767Z,96.90
2022-11-16T07:19:37.318Z,96.70
2022-11-16T07:22:05.623Z,96.70
2022-11-16T07:24:33.018Z,96.80
2022-11-16T07:27:00.063Z,96.70
2022-11-16T07:29:31.473Z,97.00
2022-11-16T07:32:24.659Z,96.50
2022-11-16T07:35:11.331Z,96.50
2022-11-16T07:37:39.035Z,96.40
2022-11-16T07:40:08.419Z,96.40
2022-11-16T07:42:36.427Z,96.30
2022-11-16T07:45:13.367Z,96.20
2022-11-16T07:47:52.247Z,96.20
2022-11-16T07:50:27.651Z,96.20
2022-11-16T07:52:56.677Z,96.30
2022-11-16T07:55:25.662Z,96.10
2022-11-16T07:57:53.552Z,96.10
2022-11-16T08:00:21.303Z,96.10
2022-11-16T08:02:57.157Z,96.00
2022-11-16T08:05:25.393Z,96.00
2022-11-16T08:07:52.279Z,95.90
2022-11-16T08:10:23.305Z,95.70
2022-11-16T08:12:50.353Z,95.80
2022-11-16T08:15:19.356Z,95.80
2022-11-16T08:17:46.272Z,95.70
2022-11-16T08:20:13.775Z,95.70
2022-11-16T08:22:41.603Z,95.40
2022-11-16T08:25:09.384Z,95.50
2022-11-16T08:27:38.305Z,95.30
2022-11-16T08:30:09.857Z,95.30
2022-11-16T08:32:38.667Z,95.30
2022-11-16T08:35:06.327Z,95.10
2022-11-16T08:37:33.803Z,95.10
2022-11-16T08:40:02.457Z,94.90
2022-11-16T08:42:29.986Z,95.00
2022-11-16T08:44:56.871Z,95.00
2022-11-16T08:47:23.801Z,95.00
2022-11-16T08:49:56.145Z,95.00
2022-11-16T08:52:25.337Z,95.10
2022-11-16T08:54:53.790Z,94.80
2022-11-16T08:57:21.129Z,94.80
2022-11-16T08:59:53.275Z,94.80
2022-11-16T09:02:25.326Z,95.00
2022-11-16T09:04:53.135Z,94.60
2022-11-16T09:07:21.288Z,94.40
2022-11-16T09:09:48.492Z,94.30
2022-11-16T09:12:15.422Z,94.30
2022-11-16T09:14:42.337Z,94.30
2022-11-16T09:17:09.216Z,94.30
2022-11-16T09:19:36.057Z,94.20
2022-11-16T09:22:03.849Z,94.20
2022-11-16T09:24:31.326Z,94.30
2022-11-16T09:27:01.312Z,94.30
2022-11-16T09:29:28.335Z,94.20
2022-11-16T09:31:55.944Z,93.90
2022-11-16T09:34:22.927Z,94.00
2022-11-16T09:36:49.820Z,93.90
2022-11-16T09:39:30.583Z,93.90
2022-11-16T09:42:33.547Z,93.90
2022-11-16T09:45:12.962Z,93.80
2022-11-16T09:47:49.766Z,93.90
2022-11-16T09:50:50.125Z,93.80
2022-11-16T09:53:40.081Z,93.80
2022-11-16T09:56:29.175Z,93.70
2022-11-16T09:59:13.571Z,93.80
2022-11-16T10:01:59.758Z,93.80
2022-11-16T10:04:47.398Z,93.80
2022-11-16T10:07:26.762Z,93.80
2022-11-16T10:09:56.052Z,93.70
2022-11-16T10:12:38.468Z,93.60
2022-11-16T10:15:47.269Z,93.70
2022-11-16T10:18:41.406Z,93.50
2022-11-16T10:21:36.082Z,93.30
2022-11-16T10:24:20.041Z,93.40
2022-11-16T10:27:00.227Z,93.50
2022-11-16T10:29:43.666Z,93.40
2022-11-16T10:32:28.989Z,93.50
2022-11-16T10:35:03.740Z,93.50
2022-11-16T10:37:36.663Z,93.50
2022-11-16T10:40:29.050Z,93.60
2022-11-16T10:43:05.941Z,93.60
2022-11-16T10:45:45.271Z,93.60
2022-11-16T10:48:37.498Z,93.40
2022-11-16T10:51:05.073Z,93.50
2022-11-16T10:53:42.478Z,93.50
2022-11-16T10:56:31.790Z,93.10
2022-11-16T10:59:08.009Z,93.20
2022-11-16T11:01:50.406Z,93.30
2022-11-16T11:04:21.045Z,93.20
2022-11-16T11:07:01.032Z,93.00
2022-11-16T11:09:37.276Z,93.00
2022-11-16T11:12:41.087Z,92.90
2022-11-16T11:15:26.318Z,92.40
2022-11-16T11:18:21.541Z,92.40
2022-11-16T11:20:52.076Z,92.30
2022-11-16T11:23:22.584Z,92.10
2022-11-16T11:25:56.668Z,92.20
2022-11-16T11:28:33.988Z,91.80
2022-11-16T11:31:06.349Z,91.90
2022-11-16T11:33:38.823Z,91.80
2022-11-16T11:36:18.671Z,91.60
2022-11-16T11:39:03.525Z,91.70
2022-11-16T11:41:41.319Z,91.50
2022-11-16T11:44:19.588Z,91.60
2022-11-16T11:47:56.686Z,91.20
2022-11-16T11:50:44.831Z,91.00
2022-11-16T11:53:37.811Z,90.70
2022-11-16T11:56:05.015Z,90.90
2022-11-16T11:58:35.692Z,90.90
2022-11-16T12:01:38.173Z,91.00
2022-11-16T12:04:42.971Z,90.60
2022-11-16T12:07:37.636Z,90.70
2022-11-16T12:10:32.445Z,90.60
2022-11-16T12:13:16.212Z,90.70
2022-11-16T12:16:33.286Z,90.40
2022-11-16T12:19:39.648Z,90.50
2022-11-16T12:22:43.651Z,90.40
2022-11-16T12:25:43.284Z,90.40
2022-11-16T12:28:40.186Z,90.60
2022-11-16T12:31:42.089Z,90.50
2022-11-16T12:34:58.447Z,90.60
2022-11-16T12:37:39.330Z,90.20
2022-11-16T12:40:32.936Z,90.60
2022-11-16T12:43:11.045Z,89.60
2022-11-16T12:46:04.173Z,89.90
2022-11-16T12:49:31.024Z,89.90
2022-11-16T12:52:11.031Z,88.30
2022-11-16T12:55:25.834Z,88.50
2022-11-16T12:58:54.488Z,88.00
2022-11-16T13:01:33.887Z,88.40
2022-11-16T13:04:19.494Z,88.10
2022-11-16T13:07:19.512Z,88.60
2022-11-16T13:09:52.576Z,88.50
2022-11-16T13:12:23.398Z,88.80
2022-11-16T13:14:54.427Z,89.30
2022-11-16T13:17:25.565Z,88.50
2022-11-16T13:20:39.485Z,89.00
2022-11-16T13:23:19.249Z,88.50
2022-11-16T13:26:02.096Z,89.00
2022-11-16T13:28:51.472Z,87.80
2022-11-16T13:31:38.746Z,87.90
2022-11-16T13:34:14.711Z,88.30
2022-11-16T13:36:46.116Z,88.10
2022-11-16T13:39:58.159Z,88.10
2022-11-16T13:42:26.542Z,87.60
2022-11-16T13:44:53.995Z,88.10
2022-11-16T13:47:30.433Z,88.00
2022-11-16T13:50:04.522Z,88.00
2022-11-16T13:53:36.446Z,88.00
2022-11-16T13:55:46.388Z,87.80
2022-11-16T13:58:21.386Z,87.30
2022-11-16T14:01:02.106Z,87.70
2022-11-16T14:03:38.659Z,87.80
2022-11-16T14:06:12.748Z,87.80
2022-11-16T14:08:39.539Z,87.90
2022-11-16T14:11:33.359Z,87.00
2022-11-16T14:14:48.511Z,86.80
2022-11-16T14:17:54.729Z,86.80
2022-11-16T14:20:55.898Z,86.00
2022-11-16T14:23:53.434Z,85.90
2022-11-16T14:26:40.123Z,86.40
2022-11-16T14:29:47.527Z,86.10
2022-11-16T14:32:32.014Z,85.50
2022-11-16T14:35:00.646Z,85.70
2022-11-16T14:37:30.089Z,85.50
2022-11-16T14:40:17.626Z,84.90
2022-11-16T14:43:15.897Z,84.00
2022-11-16T14:45:52.307Z,83.20
2022-11-16T14:48:21.669Z,84.20
2022-11-16T14:51:04.826Z,83.70
2022-11-16T14:53:34.207Z,83.90
2022-11-16T14:56:17.231Z,83.70
2022-11-16T14:58:57.310Z,84.00
2022-11-16T15:01:39.787Z,83.70
2022-11-16T15:04:11.118Z,83.80
2022-11-16T15:06:58.408Z,84.40
2022-11-16T15:09:41.110Z,84.40
2022-11-16T15:12:37.684Z,84.10
2022-11-16T15:15:12.691Z,84.40
2022-11-16T15:17:47.112Z,84.80
2022-11-16T15:20:23.358Z,84.80
2022-11-16T15:22:56.433Z,84.80
2022-11-16T15:25:55.503Z,84.20
2022-11-16T15:28:29.809Z,84.60
2022-11-16T15:31:04.370Z,84.90
2022-11-16T15:33:36.261Z,84.40
2022-11-16T15:36:23.725Z,84.30
2022-11-16T15:38:55.782Z,83.80
2022-11-16T15:41:24.379Z,84.40
2022-11-16T15:44:13.559Z,84.80
2022-11-16T15:46:42.930Z,85.00
2022-11-16T15:49:30.189Z,85.20
2022-11-16T15:51:59.016Z,85.30
2022-11-16T15:54:51.129Z,85.60
2022-11-16T15:57:20.203Z,85.50
2022-11-16T15:59:55.966Z,85.80
2022-11-16T16:02:27.526Z,85.60
2022-11-16T16:04:54.463Z,85.30
2022-11-16T16:07:39.197Z,85.20
2022-11-16T16:10:18.163Z,85.00
2022-11-16T16:12:54.298Z,84.40
2022-11-16T16:15:40.034Z,84.20
2022-11-16T16:18:39.639Z,84.10
2022-11-16T16:21:06.672Z,83.70
2022-11-16T16:23:33.750Z,84.10
2022-11-16T16:26:04.331Z,84.20
2022-11-16T16:28:31.227Z,83.80
2022-11-16T16:30:58.096Z,83.80
2022-11-16T16:33:28.564Z,82.90
2022-11-16T16:35:55.508Z,83.20
2022-11-16T16:38:22.394Z,82.90
2022-11-16T16:40:49.281Z,82.10
2022-11-16T16:43:16.177Z,81.90
2022-11-16T16:45:43.852Z,82.10
2022-11-16T16:48:13.902Z,82.00
2022-11-16T16:50:41.102Z,81.30
2022-11-16T16:53:12.117Z,81.60
2022-11-16T16:55:39.194Z,81.40
2022-11-16T16:58:06.666Z,81.30
2022-11-16T17:00:33.608Z,82.00
2022-11-16T17:03:00.658Z,81.50
2022-11-16T17:05:27.522Z,81.20
2022-11-16T17:07:57.250Z,81.70
2022-11-16T17:10:24.160Z,81.30
2022-11-16T17:12:55.020Z,81.40
2022-11-16T17:15:22.212Z,81.80
2022-11-16T17:17:49.159Z,81.80
2022-11-16T17:20:16.409Z,82.00
2022-11-16T17:22:43.519Z,81.80
2022-11-16T17:25:10.873Z,81.60
2022-11-16T17:27:37.778Z,82.00
2022-11-16T17:30:05.073Z,82.20
2022-11-16T17:32:32.246Z,82.10
2022-11-16T17:34:59.122Z,82.10
2022-11-16T17:37:25.979Z,82.50
2022-11-16T17:39:52.858Z,82.40
2022-11-16T17:42:19.739Z,82.00
2022-11-16T17:44:46.631Z,82.00
2022-11-16T17:47:13.512Z,82.00
2022-11-16T17:49:40.435Z,81.90
2022-11-16T17:52:07.358Z,82.30
2022-11-16T17:54:34.418Z,82.20
2022-11-16T17:57:01.516Z,81.90
2022-11-16T17:59:30.028Z,81.90
2022-11-16T18:01:58.154Z,81.60
2022-11-16T18:04:25.559Z,81.50
2022-11-16T18:06:52.857Z,81.80
2022-11-16T18:09:20.106Z,82.20
2022-11-16T18:11:47.300Z,81.70
2022-11-16T18:14:14.530Z,81.60
2022-11-16T18:16:43.465Z,81.70
2022-11-16T18:19:17.657Z,81.40
2022-11-16T18:21:45.874Z,81.70
2022-11-16T18:24:13.417Z,82.20
2022-11-16T18:26:41.004Z,81.90
2022-11-16T18:29:12.219Z,82.00
2022-11-16T18:31:39.166Z,81.60
2022-11-16T18:34:06.063Z,81.40
2022-11-16T18:36:32.936Z,81.30
2022-11-16T18:39:00.266Z,81.50
2022-11-16T18:41:29.494Z,81.80
2022-11-16T18:43:59.457Z,82.00
2022-11-16T18:46:29.479Z,81.40
2022-11-16T18:48:57.003Z,81.70
2022-11-16T18:51:26.964Z,81.60
2022-11-16T18:53:54.146Z,81.50
2022-11-16T18:56:21.097Z,81.90
2022-11-16T18:58:50.845Z,81.70
2022-11-16T19:01:21.897Z,81.80
2022-11-16T19:03:48.996Z,82.00
2022-11-16T19:06:17.607Z,82.30
2022-11-16T19:08:53.604Z,82.10
2022-11-16T19:11:23.751Z,82.20
2022-11-16T19:14:00.812Z,81.90
2022-11-16T19:16:28.178Z,82.10
2022-11-16T19:18:55.274Z,81.80
2022-11-16T19:21:22.958Z,81.90
2022-11-16T19:23:52.646Z,82.00
2022-11-16T19:26:22.437Z,82.30
2022-11-16T19:28:50.783Z,82.50
2022-11-16T19:31:28.672Z,82.40
2022-11-16T19:34:01.783Z,82.30
2022-11-16T19:36:30.904Z,82.20
2022-11-16T19:38:58.005Z,82.50
2022-11-16T19:41:26.992Z,82.70
2022-11-16T19:43:58.968Z,82.90
2022-11-16T19:46:28.325Z,83.10
2022-11-16T19:48:56.335Z,83.30
2022-11-16T19:51:27.090Z,83.70
2022-11-16T19:53:54.752Z,83.90
2022-11-16T19:56:23.564Z,84.00
2022-11-16T19:58:50.908Z,84.20
2022-11-16T20:01:25.384Z,84.30
2022-11-16T20:03:52.938Z,84.40
2022-11-16T20:06:22.959Z,84.50
2022-11-16T20:08:52.526Z,84.60
2022-11-16T20:11:28.233Z,84.70
2022-11-16T20:13:57.207Z,84.90
2022-11-16T20:16:37.014Z,84.90
2022-11-16T20:19:06.431Z,84.80
2022-11-16T20:21:39.702Z,85.50
2022-11-16T20:24:08.959Z,84.80
2022-11-16T20:26:40.099Z,84.80
2022-11-16T20:29:06.990Z,85.10
2022-11-16T20:31:34.252Z,85.20
2022-11-16T20:34:05.130Z,85.20
2022-11-16T20:36:33.603Z,85.10
2022-11-16T20:39:00.968Z,85.00
2022-11-16T20:41:32.614Z,85.00
2022-11-16T20:44:01.491Z,85.00
2022-11-16T20:46:33.420Z,84.90
2022-11-16T20:49:01.742Z,85.20
2022-11-16T20:51:30.024Z,85.10
2022-11-16T20:53:57.042Z,85.40
2022-11-16T20:56:24.157Z,85.70
2022-11-16T20:58:51.163Z,85.60
2022-11-16T21:01:28.417Z,85.70
2022-11-16T21:04:01.704Z,85.90
2022-11-16T21:06:29.275Z,86.10
2022-11-16T21:08:56.998Z,86.20
2022-11-16T21:11:28.863Z,86.30
2022-11-16T21:14:14.707Z,86.40
2022-11-16T21:16:41.801Z,86.50
2022-11-16T21:19:08.764Z,86.60
2022-11-16T21:21:36.518Z,86.90
2022-11-16T21:24:03.403Z,87.00
2022-11-16T21:26:32.871Z,87.10
2022-11-16T21:29:01.462Z,87.20
2022-11-16T21:31:31.926Z,87.30
2022-11-16T21:34:02.420Z,87.80
2022-11-16T21:36:31.660Z,87.80
2022-11-16T21:38:59.964Z,87.90
2022-11-16T21:41:27.365Z,87.90
2022-11-16T21:43:54.400Z,87.70
2022-11-16T21:46:25.008Z,87.80
2022-11-16T21:48:53.741Z,87.90
2022-11-16T21:51:22.962Z,88.20
2022-11-16T21:53:49.871Z,88.40
2022-11-16T21:56:23.360Z,88.30
2022-11-16T21:58:52.847Z,88.50
2022-11-16T22:01:20.396Z,89.20
2022-11-16T22:03:48.413Z,88.40
2022-11-16T22:06:34.779Z,88.40
2022-11-16T22:09:01.710Z,88.40
2022-11-16T22:11:28.795Z,88.30
2022-11-16T22:13:55.667Z,88.10
2022-11-16T22:16:23.350Z,88.10
2022-11-16T22:18:50.659Z,88.20
2022-11-16T22:21:17.591Z,88.30
2022-11-16T22:23:44.508Z,88.30
2022-11-16T22:26:13.380Z,88.30
2022-11-16T22:28:40.293Z,88.60
2022-11-16T22:31:11.296Z,88.70
2022-11-16T22:33:38.832Z,89.00
2022-11-16T22:36:09.167Z,89.10
2022-11-16T22:38:36.393Z,89.10
2022-11-16T22:41:03.590Z,89.30
2022-11-16T22:43:31.359Z,89.30
2022-11-16T22:45:59.649Z,89.50
2022-11-16T22:48:38.560Z,89.40
2022-11-16T22:51:08.165Z,89.40
2022-11-16T22:53:35.466Z,89.60
2022-11-16T22:56:08.238Z,89.50
2022-11-16T22:58:36.525Z,89.70
2022-11-16T23:01:05.102Z,90.00
2022-11-16T23:03:32.178Z,90.00
2022-11-16T23:05:59.787Z,90.00
2022-11-16T23:08:27.135Z,90.10
2022-11-16T23:11:31.223Z,90.20
2022-11-16T23:14:17.028Z,90.20
2022-11-16T23:16:44.548Z,90.20
2022-11-16T23:19:33.743Z,90.30
2022-11-16T23:22:19.336Z,90.30
2022-11-16T23:25:04.889Z,90.20
2022-11-16T23:28:00.576Z,90.20
2022-11-16T23:30:27.605Z,90.20
2022-11-16T23:32:54.587Z,90.20
2022-11-16T23:35:22.150Z,90.20
2022-11-16T23:38:07.983Z,90.40
2022-11-16T23:40:40.047Z,90.40
2022-11-16T23:43:28.793Z,90.50
2022-11-16T23:45:55.711Z,90.50
2022-11-16T23:48:22.589Z,90.80
2022-11-16T23:50:49.466Z,90.80
2022-11-16T23:53:16.327Z,90.90
2022-11-16T23:55:43.221Z,90.90
2022-11-16T23:58:14.399Z,90.90
